createdAt,value
2022-12-23T00:01:15.603Z,271.30
2022-12-23T00:03:19.016Z,268.73
2022-12-23T00:05:22.499Z,278.35
2022-12-23T00:07:25.936Z,254.98
2022-12-23T00:09:31.616Z,262.20
2022-12-23T00:11:34.936Z,266.25
2022-12-23T00:13:55.933Z,272.67
2022-12-23T00:16:03.025Z,271.67
2022-12-23T00:18:06.457Z,267.05
2022-12-23T00:20:11.704Z,266.40
2022-12-23T00:22:15.007Z,271.35
2022-12-23T00:24:18.344Z,280.05
2022-12-23T00:26:24.816Z,270.88
2022-12-23T00:28:30.551Z,257.33
2022-12-23T00:30:34.014Z,267.35
2022-12-23T00:32:37.502Z,261.92
2022-12-23T00:34:40.821Z,269.80
2022-12-23T00:36:44.191Z,268.98
2022-12-23T00:39:05.745Z,270.25
2022-12-23T00:41:29.224Z,276.77
2022-12-23T00:43:33.900Z,269.35
2022-12-23T00:45:37.766Z,273.52
2022-12-23T00:47:58.799Z,269.42
2022-12-23T00:50:02.106Z,270.85
2022-12-23T00:52:07.550Z,253.13
2022-12-23T00:54:11.041Z,277.05
2022-12-23T00:56:14.461Z,268.52
2022-12-23T00:58:18.804Z,263.95
2022-12-23T01:00:44.494Z,257.35
2022-12-23T01:03:05.666Z,263.00
2022-12-23T01:05:37.443Z,275.95
2022-12-23T01:07:42.331Z,261.95
2022-12-23T01:09:45.882Z,262.23
2022-12-23T01:11:49.271Z,284.50
2022-12-23T01:13:52.655Z,279.20
2022-12-23T01:16:02.118Z,266.08
2022-12-23T01:18:05.681Z,278.55
2022-12-23T01:20:09.916Z,272.27
2022-12-23T01:22:13.279Z,267.38
2022-12-23T01:24:16.699Z,278.10
2022-12-23T01:26:20.010Z,275.70
2022-12-23T01:28:23.347Z,257.45
2022-12-23T01:30:27.258Z,254.63
2022-12-23T01:32:31.947Z,269.88
2022-12-23T01:34:37.408Z,259.80
2022-12-23T01:36:41.083Z,249.57
2022-12-23T01:38:45.002Z,259.83
2022-12-23T01:40:48.426Z,275.50
2022-12-23T01:42:50.911Z,273.48
2022-12-23T01:45:00.532Z,270.77
2022-12-23T01:47:04.938Z,267.23
2022-12-23T01:49:09.807Z,283.17
2022-12-23T01:51:15.912Z,269.00
2022-12-23T01:53:21.835Z,281.63
2022-12-23T01:55:27.809Z,261.98
2022-12-23T01:57:31.650Z,243.07
2022-12-23T01:59:52.782Z,262.20
2022-12-23T02:02:13.861Z,262.65
2022-12-23T02:04:21.605Z,268.50
2022-12-23T02:06:46.227Z,280.48
2022-12-23T02:09:07.696Z,273.08
2022-12-23T02:11:35.334Z,263.60
2022-12-23T02:14:03.303Z,259.45
2022-12-23T02:16:18.702Z,266.48
2022-12-23T02:18:47.119Z,258.23
2022-12-23T02:21:12.152Z,258.77
2022-12-23T02:23:51.205Z,278.05
2022-12-23T02:26:10.501Z,253.48
2022-12-23T02:28:57.563Z,263.48
2022-12-23T02:31:10.437Z,263.73
2022-12-23T02:33:29.078Z,260.92
2022-12-23T02:35:41.760Z,266.95
2022-12-23T02:37:54.126Z,283.85
2022-12-23T02:40:02.928Z,268.58
2022-12-23T02:42:12.246Z,282.58
2022-12-23T02:44:24.748Z,264.05
2022-12-23T02:46:34.809Z,264.00
2022-12-23T02:48:42.577Z,255.13
2022-12-23T02:50:47.073Z,273.70
2022-12-23T02:52:52.865Z,263.67
2022-12-23T02:55:02.016Z,260.67
2022-12-23T02:57:08.717Z,264.90
2022-12-23T02:59:18.496Z,265.02
2022-12-23T03:01:22.230Z,284.40
2022-12-23T03:03:27.876Z,279.10
2022-12-23T03:05:35.705Z,272.00
2022-12-23T03:07:43.677Z,272.25
2022-12-23T03:09:58.177Z,276.85
2022-12-23T03:12:07.952Z,276.48
2022-12-23T03:14:29.491Z,273.55
2022-12-23T03:16:45.254Z,262.33
2022-12-23T03:19:03.537Z,273.05
2022-12-23T03:21:11.996Z,265.33
2022-12-23T03:23:22.542Z,282.50
2022-12-23T03:25:32.492Z,278.67
2022-12-23T03:27:41.454Z,280.05
2022-12-23T03:29:52.604Z,276.23
2022-12-23T03:32:00.928Z,266.48
2022-12-23T03:34:11.110Z,274.20
2022-12-23T03:36:19.324Z,277.05
2022-12-23T03:38:24.026Z,271.70
2022-12-23T03:40:31.580Z,279.35
2022-12-23T03:42:37.811Z,265.52
2022-12-23T03:45:10.687Z,255.40
2022-12-23T03:47:13.085Z,265.48
2022-12-23T03:49:25.278Z,283.05
2022-12-23T03:51:34.656Z,272.52
2022-12-23T03:53:43.295Z,259.00
2022-12-23T03:55:52.216Z,268.92
2022-12-23T03:58:02.068Z,269.65
2022-12-23T04:00:06.641Z,257.92
2022-12-23T04:02:14.352Z,265.75
2022-12-23T04:04:26.291Z,268.73
2022-12-23T04:06:37.339Z,267.70
2022-12-23T04:08:42.929Z,260.23
2022-12-23T04:10:46.893Z,262.17
2022-12-23T04:12:51.155Z,258.73
2022-12-23T04:14:54.825Z,259.55
2022-12-23T04:16:59.265Z,261.30
2022-12-23T04:19:02.790Z,272.30
2022-12-23T04:21:07.535Z,279.10
2022-12-23T04:23:10.941Z,264.45
2022-12-23T04:25:15.676Z,276.02
2022-12-23T04:27:19.026Z,276.92
2022-12-23T04:29:22.394Z,283.58
2022-12-23T04:31:25.751Z,256.95
2022-12-23T04:33:29.130Z,278.65
2022-12-23T04:35:32.768Z,273.60
2022-12-23T04:37:37.735Z,276.80
2022-12-23T04:39:41.083Z,270.65
2022-12-23T04:41:44.389Z,281.15
2022-12-23T04:43:52.810Z,266.90
2022-12-23T04:45:56.727Z,269.67
2022-12-23T04:48:00.185Z,270.98
2022-12-23T04:50:03.883Z,277.08
2022-12-23T04:52:07.748Z,274.00
2022-12-23T04:54:12.446Z,268.63
2022-12-23T04:56:15.855Z,270.25
2022-12-23T04:58:21.959Z,266.23
2022-12-23T05:00:25.520Z,269.05
2022-12-23T05:02:28.966Z,277.15
2022-12-23T05:04:32.645Z,273.52
2022-12-23T05:06:36.083Z,262.40
2022-12-23T05:08:39.604Z,272.90
2022-12-23T05:10:45.728Z,271.65
2022-12-23T05:12:49.102Z,259.42
2022-12-23T05:14:53.399Z,260.80
2022-12-23T05:16:59.616Z,284.80
2022-12-23T05:19:07.192Z,262.25
2022-12-23T05:21:10.790Z,271.15
2022-12-23T05:23:14.274Z,265.70
2022-12-23T05:25:17.884Z,261.20
2022-12-23T05:27:22.649Z,272.00
2022-12-23T05:29:26.023Z,307.05
2022-12-23T05:31:29.526Z,262.90
2022-12-23T05:33:33.981Z,278.63
2022-12-23T05:35:37.471Z,270.17
2022-12-23T05:37:40.840Z,267.80
2022-12-23T05:39:44.177Z,272.17
2022-12-23T05:41:47.562Z,276.05
2022-12-23T05:43:52.401Z,283.25
2022-12-23T05:45:56.075Z,271.08
2022-12-23T05:47:59.618Z,267.73
2022-12-23T05:50:03.308Z,261.20
2022-12-23T05:52:07.913Z,263.05
2022-12-23T05:54:11.213Z,263.67
2022-12-23T05:56:14.571Z,265.67
2022-12-23T05:58:18.487Z,264.92
2022-12-23T06:00:23.540Z,265.30
2022-12-23T06:02:27.128Z,261.35
2022-12-23T06:04:30.667Z,261.75
2022-12-23T06:06:34.061Z,262.77
2022-12-23T06:08:37.622Z,266.95
2022-12-23T06:10:40.991Z,276.23
2022-12-23T06:12:44.364Z,278.85
2022-12-23T06:14:47.697Z,277.55
2022-12-23T06:16:52.543Z,253.85
2022-12-23T06:18:56.692Z,255.45
2022-12-23T06:21:01.715Z,261.17
2022-12-23T06:23:06.074Z,266.17
2022-12-23T06:25:10.095Z,268.95
2022-12-23T06:27:13.425Z,244.32
2022-12-23T06:29:16.767Z,273.77
2022-12-23T06:31:20.168Z,241.20
2022-12-23T06:33:25.645Z,243.63
2022-12-23T06:35:29.115Z,252.82
2022-12-23T06:37:32.450Z,262.27
2022-12-23T06:39:35.771Z,277.17
2022-12-23T06:41:39.268Z,264.10
2022-12-23T06:43:42.723Z,274.38
2022-12-23T06:45:48.361Z,276.05
2022-12-23T06:47:51.821Z,271.73
2022-12-23T06:49:56.490Z,255.43
2022-12-23T06:51:59.973Z,266.95
2022-12-23T06:54:03.554Z,253.50
2022-12-23T06:56:07.955Z,262.25
2022-12-23T06:58:11.465Z,260.80
2022-12-23T07:00:16.379Z,261.63
2022-12-23T07:02:19.830Z,272.13
2022-12-23T07:04:23.283Z,290.38
2022-12-23T07:06:28.020Z,265.52
2022-12-23T07:08:31.359Z,274.70
2022-12-23T07:10:34.993Z,275.42
2022-12-23T07:12:38.509Z,282.17
2022-12-23T07:14:41.915Z,291.77
2022-12-23T07:16:45.316Z,268.33
2022-12-23T07:18:48.839Z,271.13
2022-12-23T07:20:52.941Z,263.73
2022-12-23T07:22:58.229Z,282.35
2022-12-23T07:25:01.615Z,277.23
2022-12-23T07:27:05.280Z,284.77
2022-12-23T07:29:08.783Z,279.75
2022-12-23T07:31:12.300Z,271.33
2022-12-23T07:33:16.175Z,285.80
2022-12-23T07:35:20.446Z,288.98
2022-12-23T07:37:23.916Z,272.88
2022-12-23T07:39:28.813Z,282.60
2022-12-23T07:41:32.204Z,276.02
2022-12-23T07:43:42.550Z,282.35
2022-12-23T07:45:45.985Z,286.50
2022-12-23T07:47:53.286Z,289.08
2022-12-23T07:49:56.673Z,283.20
2022-12-23T07:52:00.101Z,277.88
2022-12-23T07:54:03.509Z,262.27
2022-12-23T07:56:09.133Z,255.57
2022-12-23T07:58:12.450Z,276.67
2022-12-23T08:00:16.399Z,280.83
2022-12-23T08:02:22.051Z,276.45
2022-12-23T08:04:25.671Z,260.98
2022-12-23T08:06:29.034Z,270.10
2022-12-23T08:08:32.907Z,278.83
2022-12-23T08:10:36.236Z,269.77
2022-12-23T08:12:41.070Z,280.38
2022-12-23T08:14:45.581Z,282.83
2022-12-23T08:16:49.436Z,262.02
2022-12-23T08:18:52.842Z,265.45
2022-12-23T08:20:57.235Z,267.60
2022-12-23T08:23:00.586Z,275.27
2022-12-23T08:25:04.321Z,274.83
2022-12-23T08:27:07.702Z,270.02
2022-12-23T08:29:12.521Z,278.55
2022-12-23T08:31:17.771Z,267.63
2022-12-23T08:33:21.210Z,274.02
2022-12-23T08:35:24.623Z,268.73
2022-12-23T08:37:27.967Z,258.45
2022-12-23T08:39:31.345Z,266.98
2022-12-23T08:41:38.300Z,282.60
2022-12-23T08:43:41.848Z,264.05
2022-12-23T08:45:46.696Z,288.73
2022-12-23T08:47:50.130Z,257.73
2022-12-23T08:49:53.535Z,249.00
2022-12-23T08:51:57.034Z,252.40
2022-12-23T08:54:01.838Z,263.30
2022-12-23T08:56:07.181Z,272.70
2022-12-23T08:58:11.142Z,276.98
2022-12-23T09:00:15.386Z,265.42
2022-12-23T09:02:22.209Z,243.02
2022-12-23T09:04:25.811Z,278.33
2022-12-23T09:06:33.631Z,271.20
2022-12-23T09:08:37.780Z,269.75
2022-12-23T09:10:42.652Z,252.63
2022-12-23T09:12:46.284Z,254.85
2022-12-23T09:14:49.663Z,261.25
2022-12-23T09:16:53.107Z,257.80
2022-12-23T09:18:58.224Z,260.85
2022-12-23T09:21:04.411Z,268.92
2022-12-23T09:23:08.154Z,255.93
2022-12-23T09:25:11.543Z,270.50
2022-12-23T09:27:14.895Z,270.05
2022-12-23T09:29:18.218Z,262.15
2022-12-23T09:31:26.792Z,263.85
2022-12-23T09:33:32.700Z,256.08
2022-12-23T09:35:37.409Z,267.42
2022-12-23T09:37:40.885Z,266.67
2022-12-23T09:39:44.496Z,261.92
2022-12-23T09:42:01.261Z,278.58
2022-12-23T09:44:22.554Z,267.23
2022-12-23T09:46:31.000Z,262.67
2022-12-23T09:48:42.660Z,259.58
2022-12-23T09:50:47.467Z,269.35
2022-12-23T09:52:59.922Z,254.93
2022-12-23T09:55:03.252Z,263.27
2022-12-23T09:57:19.843Z,258.02
2022-12-23T09:59:34.947Z,253.23
2022-12-23T10:01:46.023Z,265.13
2022-12-23T10:04:16.265Z,266.98
2022-12-23T10:06:26.618Z,263.63
2022-12-23T10:08:34.148Z,248.13
2022-12-23T10:10:42.100Z,254.88
2022-12-23T10:12:48.915Z,262.80
2022-12-23T10:14:56.921Z,263.75
2022-12-23T10:17:06.688Z,268.20
2022-12-23T10:19:16.844Z,262.23
2022-12-23T10:21:31.250Z,246.23
2022-12-23T10:23:38.598Z,258.42
2022-12-23T10:25:50.067Z,262.10
2022-12-23T10:27:53.493Z,260.33
2022-12-23T10:30:09.450Z,244.10
2022-12-23T10:32:29.428Z,248.15
2022-12-23T10:34:40.665Z,247.27
2022-12-23T10:36:54.666Z,260.88
2022-12-23T10:39:05.389Z,255.25
2022-12-23T10:41:18.087Z,266.45
2022-12-23T10:43:27.732Z,278.65
2022-12-23T10:45:49.519Z,245.50
2022-12-23T10:48:08.621Z,262.00
2022-12-23T10:50:45.869Z,274.40
2022-12-23T10:52:53.557Z,264.38
2022-12-23T10:54:56.905Z,259.23
2022-12-23T10:57:01.231Z,264.90
2022-12-23T10:59:06.573Z,254.60
2022-12-23T11:01:21.855Z,262.13
2022-12-23T11:03:32.280Z,254.13
2022-12-23T11:05:36.845Z,249.40
2022-12-23T11:07:45.389Z,271.55
2022-12-23T11:09:55.218Z,265.73
2022-12-23T11:12:01.127Z,275.88
2022-12-23T11:14:04.509Z,268.63
2022-12-23T11:16:15.960Z,256.65
2022-12-23T11:18:21.862Z,270.75
2022-12-23T11:20:25.905Z,256.58
2022-12-23T11:22:29.508Z,263.55
2022-12-23T11:24:37.964Z,251.15
2022-12-23T11:26:48.322Z,252.18
2022-12-23T11:29:03.864Z,269.48
2022-12-23T11:31:11.819Z,262.20
2022-12-23T11:33:23.889Z,234.05
2022-12-23T11:35:29.448Z,247.07
2022-12-23T11:37:37.839Z,256.63
2022-12-23T11:39:47.378Z,256.67
2022-12-23T11:41:55.736Z,253.18
2022-12-23T11:44:02.523Z,260.77
2022-12-23T11:46:17.693Z,257.98
2022-12-23T11:48:29.009Z,260.77
2022-12-23T11:50:35.975Z,256.65
2022-12-23T11:52:51.679Z,260.70
2022-12-23T11:54:56.441Z,261.10
2022-12-23T11:57:04.690Z,246.18
2022-12-23T11:59:17.056Z,272.30
2022-12-23T12:01:24.810Z,276.38
2022-12-23T12:03:32.707Z,263.90
2022-12-23T12:05:39.167Z,248.18
2022-12-23T12:07:43.191Z,266.60
2022-12-23T12:09:46.545Z,246.82
2022-12-23T12:11:53.057Z,238.85
2022-12-23T12:14:01.117Z,254.55
2022-12-23T12:16:21.189Z,241.30
2022-12-23T12:18:25.355Z,236.38
2022-12-23T12:20:32.424Z,266.50
2022-12-23T12:22:40.282Z,252.45
2022-12-23T12:24:49.245Z,270.08
2022-12-23T12:26:54.641Z,259.50
2022-12-23T12:29:03.709Z,263.77
2022-12-23T12:31:17.921Z,255.30
2022-12-23T12:33:28.813Z,246.57
2022-12-23T12:35:38.908Z,234.30
2022-12-23T12:37:49.205Z,273.20
2022-12-23T12:39:56.899Z,247.07
2022-12-23T12:42:06.353Z,252.35
2022-12-23T12:44:29.035Z,245.68
2022-12-23T12:46:39.104Z,249.25
2022-12-23T12:48:48.360Z,250.40
2022-12-23T12:50:59.125Z,237.40
2022-12-23T12:53:11.292Z,252.57
2022-12-23T12:55:22.347Z,258.85
2022-12-23T12:57:26.363Z,246.73
2022-12-23T12:59:35.722Z,258.48
2022-12-23T13:01:49.330Z,249.95
2022-12-23T13:04:22.702Z,218.02
2022-12-23T13:06:32.371Z,246.63
2022-12-23T13:08:55.525Z,250.70
2022-12-23T13:11:06.750Z,236.35
2022-12-23T13:13:24.518Z,254.63
2022-12-23T13:15:35.264Z,235.23
2022-12-23T13:17:46.235Z,259.85
2022-12-23T13:19:54.467Z,246.73
2022-12-23T13:22:04.179Z,254.85
2022-12-23T13:24:17.089Z,250.77
2022-12-23T13:26:30.933Z,232.30
2022-12-23T13:28:41.411Z,237.85
2022-12-23T13:30:54.108Z,244.68
2022-12-23T13:33:08.259Z,254.23
2022-12-23T13:35:30.382Z,223.13
2022-12-23T13:37:40.579Z,245.55
2022-12-23T13:39:55.237Z,241.13
2022-12-23T13:42:05.941Z,233.27
2022-12-23T13:44:11.271Z,227.77
2022-12-23T13:46:25.529Z,258.75
2022-12-23T13:48:37.850Z,231.05
2022-12-23T13:50:46.689Z,237.90
2022-12-23T13:53:07.215Z,240.65
2022-12-23T13:55:23.045Z,248.13
2022-12-23T13:57:41.457Z,235.45
2022-12-23T14:00:04.970Z,243.45
2022-12-23T14:02:52.859Z,231.82
2022-12-23T14:05:00.819Z,228.05
2022-12-23T14:07:08.286Z,222.88
2022-12-23T14:09:16.225Z,221.35
2022-12-23T14:11:23.350Z,215.75
2022-12-23T14:13:31.146Z,234.95
2022-12-23T14:15:49.025Z,228.82
2022-12-23T14:18:08.773Z,242.70
2022-12-23T14:20:26.995Z,230.13
2022-12-23T14:22:58.593Z,219.90
2022-12-23T14:25:30.300Z,230.48
2022-12-23T14:27:51.957Z,225.02
2022-12-23T14:30:06.212Z,234.20
2022-12-23T14:32:20.859Z,223.98
2022-12-23T14:34:30.195Z,224.93
2022-12-23T14:36:33.741Z,241.10
2022-12-23T14:38:37.359Z,232.68
2022-12-23T14:40:58.182Z,240.35
2022-12-23T14:43:25.864Z,240.63
2022-12-23T14:45:34.806Z,241.88
2022-12-23T14:47:40.582Z,254.23
2022-12-23T14:49:45.566Z,237.00
2022-12-23T14:51:50.843Z,239.40
2022-12-23T14:54:13.641Z,239.65
2022-12-23T14:56:24.482Z,245.43
2022-12-23T14:58:42.387Z,242.25
2022-12-23T15:00:51.001Z,243.02
2022-12-23T15:02:58.244Z,240.05
2022-12-23T15:05:03.570Z,224.73
2022-12-23T15:07:10.095Z,247.90
2022-12-23T15:09:23.467Z,297.27
2022-12-23T15:11:29.897Z,273.65
2022-12-23T15:13:34.133Z,246.20
2022-12-23T15:15:37.599Z,249.85
2022-12-23T15:17:41.233Z,244.63
2022-12-23T15:19:48.938Z,259.42
2022-12-23T15:22:17.847Z,243.18
2022-12-23T15:24:24.401Z,234.77
2022-12-23T15:26:31.231Z,225.15
2022-12-23T15:28:38.574Z,258.73
2022-12-23T15:30:50.669Z,236.70
2022-12-23T15:32:59.572Z,242.73
2022-12-23T15:35:06.981Z,249.82
2022-12-23T15:37:14.037Z,251.55
2022-12-23T15:39:20.883Z,252.40
2022-12-23T15:41:24.358Z,253.05
2022-12-23T15:43:28.453Z,256.98
2022-12-23T15:45:36.536Z,270.15
2022-12-23T15:47:41.818Z,260.67
2022-12-23T15:49:45.920Z,266.42
2022-12-23T15:52:12.589Z,272.17
2022-12-23T15:54:23.661Z,270.02
2022-12-23T15:56:30.934Z,275.38
2022-12-23T15:58:36.437Z,273.00
2022-12-23T16:00:42.582Z,263.23
2022-12-23T16:03:03.332Z,254.70
2022-12-23T16:05:09.627Z,262.25
2022-12-23T16:07:25.597Z,279.48
2022-12-23T16:09:36.061Z,283.35
2022-12-23T16:11:48.736Z,270.90
2022-12-23T16:13:58.848Z,280.55
2022-12-23T16:16:30.305Z,274.20
2022-12-23T16:18:46.973Z,277.20
2022-12-23T16:20:54.523Z,283.75
2022-12-23T16:23:01.623Z,267.23
2022-12-23T16:25:12.870Z,265.75
2022-12-23T16:27:19.392Z,269.65
2022-12-23T16:29:23.238Z,288.73
2022-12-23T16:31:26.715Z,282.17
2022-12-23T16:33:37.509Z,301.15
2022-12-23T16:35:42.954Z,302.25
2022-12-23T16:37:51.096Z,315.10
2022-12-23T16:39:54.794Z,283.75
2022-12-23T16:41:59.589Z,297.60
2022-12-23T16:44:03.125Z,306.98
2022-12-23T16:46:08.327Z,287.27
2022-12-23T16:48:20.713Z,299.35
2022-12-23T16:50:24.651Z,291.83
2022-12-23T16:52:28.034Z,286.02
2022-12-23T16:54:31.399Z,282.73
2022-12-23T16:56:36.581Z,299.02
2022-12-23T16:58:41.374Z,303.17
2022-12-23T17:00:45.443Z,304.25
2022-12-23T17:02:49.059Z,302.67
2022-12-23T17:04:52.861Z,320.00
2022-12-23T17:06:56.237Z,313.40
2022-12-23T17:08:59.702Z,308.90
2022-12-23T17:11:03.269Z,291.52
2022-12-23T17:13:06.739Z,297.20
2022-12-23T17:15:17.945Z,288.58
2022-12-23T17:17:25.632Z,297.80
2022-12-23T17:19:29.710Z,311.90
2022-12-23T17:21:36.718Z,290.95
2022-12-23T17:23:40.654Z,308.30
2022-12-23T17:25:45.042Z,306.23
2022-12-23T17:27:49.987Z,290.25
2022-12-23T17:29:53.295Z,298.27
2022-12-23T17:31:58.195Z,304.35
2022-12-23T17:34:01.700Z,302.48
2022-12-23T17:36:05.551Z,301.55
2022-12-23T17:38:13.334Z,298.17
2022-12-23T17:40:17.807Z,305.13
2022-12-23T17:42:25.859Z,307.23
2022-12-23T17:44:29.240Z,303.65
2022-12-23T17:46:32.834Z,300.48
2022-12-23T17:48:37.951Z,295.63
2022-12-23T17:50:42.936Z,295.65
2022-12-23T17:52:46.915Z,312.08
2022-12-23T17:54:52.183Z,298.10
2022-12-23T17:56:56.106Z,302.58
2022-12-23T17:58:59.929Z,314.27
2022-12-23T18:01:03.273Z,320.52
2022-12-23T18:03:07.672Z,307.67
2022-12-23T18:05:22.629Z,299.75
2022-12-23T18:07:26.780Z,286.48
2022-12-23T18:09:30.106Z,330.88
2022-12-23T18:11:37.252Z,304.83
2022-12-23T18:13:40.618Z,318.67
2022-12-23T18:15:45.383Z,293.50
2022-12-23T18:17:48.960Z,324.40
2022-12-23T18:19:52.731Z,312.98
2022-12-23T18:21:57.634Z,300.75
2022-12-23T18:24:01.180Z,309.05
2022-12-23T18:26:04.955Z,322.77
2022-12-23T18:28:08.648Z,309.73
2022-12-23T18:30:13.158Z,315.83
2022-12-23T18:32:23.250Z,290.77
2022-12-23T18:34:26.603Z,321.98
2022-12-23T18:36:33.168Z,315.27
2022-12-23T18:38:37.994Z,314.33
2022-12-23T18:40:42.802Z,309.98
2022-12-23T18:42:47.008Z,307.60
2022-12-23T18:44:50.314Z,305.52
2022-12-23T18:46:53.755Z,306.55
2022-12-23T18:48:57.295Z,311.63
2022-12-23T18:51:00.692Z,298.15
2022-12-23T18:53:04.689Z,323.98
2022-12-23T18:55:11.747Z,297.98
2022-12-23T18:57:15.120Z,336.33
2022-12-23T18:59:27.512Z,324.05
2022-12-23T19:01:33.229Z,297.42
2022-12-23T19:03:36.661Z,304.60
2022-12-23T19:05:40.181Z,329.23
2022-12-23T19:07:43.703Z,298.95
2022-12-23T19:09:47.050Z,291.00
2022-12-23T19:11:53.413Z,300.95
2022-12-23T19:13:56.768Z,307.88
2022-12-23T19:16:00.162Z,302.88
2022-12-23T19:18:03.523Z,311.67
2022-12-23T19:20:08.979Z,293.45
2022-12-23T19:22:12.419Z,314.50
2022-12-23T19:24:15.728Z,300.95
2022-12-23T19:26:19.150Z,302.40
2022-12-23T19:28:24.285Z,295.58
2022-12-23T19:30:27.718Z,301.05
2022-12-23T19:32:31.402Z,302.10
2022-12-23T19:34:35.102Z,297.58
2022-12-23T19:36:39.692Z,293.85
2022-12-23T19:38:43.343Z,327.73
2022-12-23T19:40:46.701Z,304.88
2022-12-23T19:42:50.043Z,294.08
2022-12-23T19:44:54.719Z,316.88
2022-12-23T19:46:58.130Z,309.67
2022-12-23T19:49:01.606Z,309.00
2022-12-23T19:51:07.643Z,298.70
2022-12-23T19:53:11.250Z,293.65
2022-12-23T19:55:15.619Z,302.33
2022-12-23T19:57:19.013Z,304.20
2022-12-23T19:59:22.507Z,306.70
2022-12-23T20:01:27.963Z,306.80
2022-12-23T20:03:31.436Z,312.20
2022-12-23T20:05:34.826Z,299.90
2022-12-23T20:07:38.276Z,292.50
2022-12-23T20:09:41.644Z,291.80
2022-12-23T20:11:46.673Z,291.55
2022-12-23T20:13:53.239Z,298.00
2022-12-23T20:15:56.690Z,328.80
2022-12-23T20:18:01.411Z,309.45
2022-12-23T20:20:06.994Z,295.70
2022-12-23T20:22:10.346Z,287.20
2022-12-23T20:24:14.438Z,321.80
2022-12-23T20:26:19.178Z,297.58
2022-12-23T20:28:22.556Z,303.25
2022-12-23T20:30:27.721Z,314.90
2022-12-23T20:32:31.088Z,295.15
2022-12-23T20:34:39.567Z,299.83
2022-12-23T20:36:43.574Z,297.05
2022-12-23T20:38:48.026Z,279.52
2022-12-23T20:40:51.514Z,308.65
2022-12-23T20:42:55.077Z,297.33
2022-12-23T20:44:58.371Z,303.17
2022-12-23T20:47:01.947Z,288.73
2022-12-23T20:49:05.695Z,308.15
2022-12-23T20:51:13.516Z,292.35
2022-12-23T20:53:17.527Z,290.45
2022-12-23T20:55:20.864Z,297.88
2022-12-23T20:57:24.587Z,310.10
2022-12-23T20:59:28.141Z,283.98
2022-12-23T21:01:33.103Z,299.27
2022-12-23T21:03:36.984Z,294.08
2022-12-23T21:05:40.537Z,290.25
2022-12-23T21:07:45.266Z,293.52
2022-12-23T21:09:48.729Z,294.52
2022-12-23T21:11:52.146Z,280.33
2022-12-23T21:13:57.764Z,294.98
2022-12-23T21:16:03.912Z,294.70
2022-12-23T21:18:07.343Z,305.85
2022-12-23T21:20:11.297Z,287.50
2022-12-23T21:22:14.668Z,290.77
2022-12-23T21:24:19.969Z,297.08
2022-12-23T21:26:25.107Z,310.02
2022-12-23T21:28:28.551Z,302.58
2022-12-23T21:30:31.943Z,290.63
2022-12-23T21:32:35.445Z,295.13
2022-12-23T21:34:39.032Z,312.42
2022-12-23T21:36:43.129Z,290.65
2022-12-23T21:38:46.719Z,301.60
2022-12-23T21:40:51.462Z,282.65
2022-12-23T21:42:54.863Z,302.80
2022-12-23T21:44:58.273Z,283.50
2022-12-23T21:47:01.615Z,292.38
2022-12-23T21:49:05.205Z,310.55
2022-12-23T21:51:11.488Z,286.65
2022-12-23T21:53:15.010Z,294.50
2022-12-23T21:55:18.381Z,294.98
2022-12-23T21:57:23.184Z,289.42
2022-12-23T21:59:32.819Z,299.73
2022-12-23T22:01:38.950Z,285.52
2022-12-23T22:03:43.291Z,296.90
2022-12-23T22:05:46.679Z,308.20
2022-12-23T22:07:50.113Z,296.10
2022-12-23T22:09:53.609Z,298.52
2022-12-23T22:11:57.725Z,286.48
2022-12-23T22:14:04.799Z,290.80
2022-12-23T22:16:10.732Z,305.27
2022-12-23T22:18:14.098Z,306.00
2022-12-23T22:20:17.573Z,285.13
2022-12-23T22:22:20.876Z,299.73
2022-12-23T22:24:24.369Z,295.38
2022-12-23T22:26:29.902Z,287.27
2022-12-23T22:28:34.842Z,281.58
2022-12-23T22:30:39.591Z,291.92
2022-12-23T22:32:43.032Z,296.73
2022-12-23T22:34:46.347Z,289.17
2022-12-23T22:36:50.867Z,293.85
2022-12-23T22:38:56.642Z,300.52
2022-12-23T22:41:00.046Z,304.08
2022-12-23T22:43:03.423Z,295.88
2022-12-23T22:45:09.182Z,287.42
2022-12-23T22:47:14.053Z,293.73
2022-12-23T22:49:18.020Z,289.52
2022-12-23T22:51:23.158Z,284.90
2022-12-23T22:53:29.868Z,295.63
2022-12-23T22:55:33.435Z,289.52
2022-12-23T22:57:36.832Z,295.42
2022-12-23T22:59:40.277Z,303.95
2022-12-23T23:01:43.697Z,300.10
2022-12-23T23:03:50.969Z,305.40
2022-12-23T23:05:59.569Z,305.30
2022-12-23T23:08:02.923Z,317.48
2022-12-23T23:10:07.595Z,300.15
2022-12-23T23:12:10.937Z,308.83
2022-12-23T23:14:14.668Z,309.20
2022-12-23T23:16:18.510Z,293.80
2022-12-23T23:18:21.934Z,320.02
2022-12-23T23:20:26.639Z,296.25
2022-12-23T23:22:30.024Z,302.10
2022-12-23T23:24:34.164Z,305.70
2022-12-23T23:26:37.574Z,284.60
2022-12-23T23:28:41.927Z,311.98
2022-12-23T23:30:45.590Z,287.67
2022-12-23T23:32:49.127Z,304.33
2022-12-23T23:34:52.526Z,299.08
2022-12-23T23:36:57.893Z,313.05
2022-12-23T23:39:01.192Z,309.00
2022-12-23T23:41:04.846Z,317.58
2022-12-23T23:43:08.308Z,309.65
2022-12-23T23:45:12.084Z,303.77
2022-12-23T23:47:15.591Z,309.40
2022-12-23T23:49:19.055Z,303.50
2022-12-23T23:51:22.358Z,298.90
2022-12-23T23:53:27.022Z,314.40
2022-12-23T23:55:30.790Z,307.30
2022-12-23T23:57:34.168Z,303.30
2022-12-23T23:59:37.676Z,303.20
